createdAt,value
2024-04-30T00:00:01.138Z,13.13
2024-04-30T00:02:36.856Z,12.03
2024-04-30T00:05:04.535Z,12.60
2024-04-30T00:07:32.991Z,12.30
2024-04-30T00:10:00.601Z,11.93
2024-04-30T00:12:27.965Z,12.10
2024-04-30T00:14:57.064Z,12.67
2024-04-30T00:17:24.473Z,12.00
2024-04-30T00:19:51.945Z,11.30
2024-04-30T00:22:19.326Z,12.27
2024-04-30T00:24:46.723Z,11.93
2024-04-30T00:27:14.186Z,11.20
2024-04-30T00:29:41.423Z,11.50
2024-04-30T00:32:08.966Z,11.37
2024-04-30T00:34:36.234Z,11.30
2024-04-30T00:37:03.593Z,10.53
2024-04-30T00:39:31.095Z,10.30
2024-04-30T00:41:58.364Z,10.50
2024-04-30T00:44:25.743Z,11.90
2024-04-30T00:46:53.072Z,10.90
2024-04-30T00:49:20.564Z,11.50
2024-04-30T00:51:48.151Z,10.70
2024-04-30T00:54:16.633Z,9.87
2024-04-30T00:56:44.365Z,10.60
2024-04-30T00:59:11.657Z,9.70
2024-04-30T01:01:41.426Z,10.03
2024-04-30T01:04:08.873Z,10.30
2024-04-30T01:06:36.202Z,9.80
2024-04-30T01:09:03.562Z,10.20
2024-04-30T01:11:31.107Z,9.80
2024-04-30T01:13:58.448Z,9.63
2024-04-30T01:16:25.898Z,10.33
2024-04-30T01:18:53.204Z,10.70
2024-04-30T01:21:20.615Z,10.60
2024-04-30T01:23:47.830Z,9.90
2024-04-30T01:26:15.203Z,10.27
2024-04-30T01:28:42.860Z,9.63
2024-04-30T01:31:10.259Z,9.63
2024-04-30T01:33:37.588Z,9.60
2024-04-30T01:36:05.173Z,11.07
2024-04-30T01:38:32.392Z,11.50
2024-04-30T01:40:59.708Z,9.33
2024-04-30T01:43:27.185Z,10.10
2024-04-30T01:45:57.233Z,8.80
2024-04-30T01:48:24.676Z,10.27
2024-04-30T01:50:52.028Z,10.43
2024-04-30T01:53:19.314Z,12.13
2024-04-30T01:55:46.627Z,10.93
2024-04-30T01:58:14.014Z,11.93
2024-04-30T02:00:41.433Z,12.17
2024-04-30T02:03:08.885Z,11.70
2024-04-30T02:05:36.325Z,12.13
2024-04-30T02:08:03.717Z,11.93
2024-04-30T02:10:31.152Z,13.03
2024-04-30T02:12:58.452Z,12.47
2024-04-30T02:15:25.835Z,12.87
2024-04-30T02:17:53.319Z,11.10
2024-04-30T02:20:20.701Z,10.93
2024-04-30T02:22:48.595Z,10.40
2024-04-30T02:25:15.852Z,10.63
2024-04-30T02:27:43.249Z,10.87
2024-04-30T02:30:20.302Z,11.20
2024-04-30T02:33:06.677Z,10.30
2024-04-30T02:35:34.341Z,11.47
2024-04-30T02:38:01.633Z,12.30
2024-04-30T02:40:29.050Z,11.90
2024-04-30T02:42:56.376Z,11.80
2024-04-30T02:45:23.783Z,11.73
2024-04-30T02:47:51.170Z,12.50
2024-04-30T02:50:18.506Z,12.37
2024-04-30T02:52:45.929Z,11.63
2024-04-30T02:55:13.471Z,10.63
2024-04-30T02:57:40.885Z,11.67
2024-04-30T03:00:08.505Z,10.37
2024-04-30T03:02:36.061Z,11.60
2024-04-30T03:05:03.461Z,12.03
2024-04-30T03:07:30.920Z,11.07
2024-04-30T03:09:58.369Z,11.97
2024-04-30T03:12:25.794Z,12.23
2024-04-30T03:14:53.169Z,11.53
2024-04-30T03:17:20.636Z,10.90
2024-04-30T03:19:48.270Z,9.97
2024-04-30T03:22:15.607Z,11.20
2024-04-30T03:24:42.981Z,11.30
2024-04-30T03:27:10.371Z,11.57
2024-04-30T03:29:37.659Z,11.53
2024-04-30T03:32:05.109Z,12.37
2024-04-30T03:34:32.731Z,12.63
2024-04-30T03:37:00.066Z,12.87
2024-04-30T03:39:27.389Z,12.60
2024-04-30T03:41:54.889Z,11.80
2024-04-30T03:44:22.153Z,13.43
2024-04-30T03:46:49.575Z,13.53
2024-04-30T03:49:16.972Z,12.13
2024-04-30T03:51:44.245Z,11.47
2024-04-30T03:54:11.678Z,12.03
2024-04-30T03:56:39.157Z,13.00
2024-04-30T03:59:07.288Z,12.53
2024-04-30T04:01:34.999Z,12.40
2024-04-30T04:04:02.449Z,13.00
2024-04-30T04:06:29.832Z,13.07
2024-04-30T04:08:59.308Z,12.90
2024-04-30T04:11:45.334Z,12.50
2024-04-30T04:14:31.155Z,12.87
2024-04-30T04:16:58.529Z,12.77
2024-04-30T04:19:27.833Z,12.13
2024-04-30T04:21:55.757Z,11.40
2024-04-30T04:24:23.105Z,12.07
2024-04-30T04:26:50.470Z,12.57
2024-04-30T04:29:17.970Z,12.80
2024-04-30T04:31:45.363Z,12.33
2024-04-30T04:34:12.775Z,13.87
2024-04-30T04:36:40.201Z,13.20
2024-04-30T04:39:07.542Z,13.40
2024-04-30T04:41:34.850Z,11.93
2024-04-30T04:44:02.320Z,12.07
2024-04-30T04:46:29.672Z,12.30
2024-04-30T04:49:00.276Z,12.00
2024-04-30T04:51:27.546Z,11.67
2024-04-30T04:53:55.208Z,12.33
2024-04-30T04:56:22.782Z,12.00
2024-04-30T04:58:50.248Z,12.57
2024-04-30T05:01:21.051Z,11.67
2024-04-30T05:03:48.677Z,11.40
2024-04-30T05:06:16.144Z,11.63
2024-04-30T05:08:46.475Z,10.60
2024-04-30T05:11:16.973Z,11.27
2024-04-30T05:13:44.473Z,10.47
2024-04-30T05:16:11.993Z,10.17
2024-04-30T05:18:39.506Z,10.23
2024-04-30T05:21:07.023Z,9.70
2024-04-30T05:23:34.494Z,9.83
2024-04-30T05:26:02.050Z,9.83
2024-04-30T05:28:29.726Z,9.60
2024-04-30T05:30:57.195Z,8.73
2024-04-30T05:33:24.539Z,8.90
2024-04-30T05:35:52.245Z,9.63
2024-04-30T05:38:19.572Z,10.13
2024-04-30T05:40:46.988Z,8.53
2024-04-30T05:43:17.297Z,9.37
2024-04-30T05:45:44.768Z,8.00
2024-04-30T05:48:12.153Z,7.87
2024-04-30T05:50:39.429Z,7.67
2024-04-30T05:53:09.874Z,7.30
2024-04-30T05:55:37.414Z,7.17
2024-04-30T05:58:05.055Z,7.60
2024-04-30T06:00:32.527Z,7.27
2024-04-30T06:03:03.462Z,7.60
2024-04-30T06:05:32.087Z,7.63
2024-04-30T06:07:59.488Z,7.33
2024-04-30T06:10:26.816Z,7.17
2024-04-30T06:12:54.357Z,6.57
2024-04-30T06:15:21.902Z,6.87
2024-04-30T06:17:49.556Z,6.67
2024-04-30T06:20:16.884Z,6.30
2024-04-30T06:22:44.298Z,6.17
2024-04-30T06:25:11.808Z,6.13
2024-04-30T06:27:39.147Z,6.37
2024-04-30T06:30:07.006Z,5.80
2024-04-30T06:32:34.378Z,5.77
2024-04-30T06:35:02.001Z,5.47
2024-04-30T06:37:29.471Z,5.47
2024-04-30T06:39:56.814Z,4.80
2024-04-30T06:42:24.173Z,5.07
2024-04-30T06:44:51.505Z,5.33
2024-04-30T06:47:18.871Z,5.17
2024-04-30T06:49:46.422Z,5.23
2024-04-30T06:52:13.750Z,5.40
2024-04-30T06:54:41.241Z,4.90
2024-04-30T06:57:08.518Z,5.20
2024-04-30T06:59:35.840Z,5.13
2024-04-30T07:02:03.203Z,4.63
2024-04-30T07:04:30.643Z,4.30
2024-04-30T07:06:58.113Z,4.17
2024-04-30T07:09:25.468Z,4.30
2024-04-30T07:11:52.799Z,4.50
2024-04-30T07:14:20.138Z,4.30
2024-04-30T07:16:52.372Z,4.67
2024-04-30T07:19:27.044Z,4.30
2024-04-30T07:21:54.322Z,4.87
2024-04-30T07:24:21.750Z,4.03
2024-04-30T07:26:49.028Z,4.07
2024-04-30T07:29:16.629Z,3.60
2024-04-30T07:31:43.939Z,3.97
2024-04-30T07:34:11.539Z,3.70
2024-04-30T07:36:38.912Z,3.23
2024-04-30T07:39:06.738Z,3.63
2024-04-30T07:41:34.036Z,3.30
2024-04-30T07:44:01.449Z,3.13
2024-04-30T07:46:28.975Z,3.03
2024-04-30T07:48:56.462Z,3.33
2024-04-30T07:51:23.864Z,2.77
2024-04-30T07:53:51.142Z,3.37
2024-04-30T07:56:18.526Z,2.17
2024-04-30T07:58:46.030Z,2.43
2024-04-30T08:01:13.580Z,2.73
2024-04-30T08:03:40.950Z,2.27
2024-04-30T08:06:14.664Z,2.33
2024-04-30T08:08:47.643Z,9.20
2024-04-30T08:11:15.899Z,3.33
2024-04-30T08:13:45.705Z,2.67
2024-04-30T08:16:13.576Z,5.20
2024-04-30T08:18:40.977Z,2.20
2024-04-30T08:21:08.923Z,2.37
2024-04-30T08:23:36.305Z,2.50
2024-04-30T08:26:03.988Z,2.53
2024-04-30T08:28:31.534Z,2.90
2024-04-30T08:30:59.422Z,2.63
2024-04-30T08:33:27.156Z,2.33
2024-04-30T08:35:54.493Z,2.60
2024-04-30T08:38:21.951Z,2.33
2024-04-30T08:40:49.357Z,2.33
2024-04-30T08:43:17.175Z,2.00
2024-04-30T08:45:44.520Z,1.80
2024-04-30T08:48:12.939Z,2.23
2024-04-30T08:50:42.806Z,3.00
2024-04-30T08:53:10.443Z,2.50
2024-04-30T08:55:38.441Z,2.53
2024-04-30T08:58:05.943Z,2.23
2024-04-30T09:00:33.344Z,2.60
2024-04-30T09:03:03.755Z,2.40
2024-04-30T09:05:32.643Z,2.20
2024-04-30T09:08:03.586Z,2.07
2024-04-30T09:10:31.339Z,2.10
2024-04-30T09:12:58.978Z,1.97
2024-04-30T09:15:26.681Z,3.10
2024-04-30T09:17:54.731Z,2.50
2024-04-30T09:20:22.197Z,2.27
2024-04-30T09:22:52.980Z,2.37
2024-04-30T09:25:21.532Z,2.20
2024-04-30T09:27:48.979Z,2.20
2024-04-30T09:30:21.843Z,2.50
2024-04-30T09:32:49.678Z,2.23
2024-04-30T09:35:27.155Z,2.10
2024-04-30T09:37:58.593Z,2.23
2024-04-30T09:40:26.946Z,2.70
2024-04-30T09:42:55.071Z,2.33
2024-04-30T09:45:22.881Z,2.60
2024-04-30T09:47:51.104Z,2.63
2024-04-30T09:50:18.973Z,2.10
2024-04-30T09:52:47.002Z,2.30
2024-04-30T09:55:15.385Z,2.60
2024-04-30T09:57:43.991Z,2.30
2024-04-30T10:00:12.422Z,2.10
2024-04-30T10:02:45.921Z,2.00
2024-04-30T10:05:24.130Z,2.60
2024-04-30T10:07:52.270Z,2.70
2024-04-30T10:10:27.083Z,3.07
2024-04-30T10:12:54.998Z,2.27
2024-04-30T10:15:31.765Z,2.30
2024-04-30T10:17:59.195Z,2.47
2024-04-30T10:20:31.718Z,2.23
2024-04-30T10:23:00.015Z,2.90
2024-04-30T10:25:27.823Z,2.20
2024-04-30T10:28:08.943Z,2.13
2024-04-30T10:30:37.063Z,1.70
2024-04-30T10:33:04.858Z,2.70
2024-04-30T10:35:44.576Z,1.90
2024-04-30T10:38:12.250Z,1.90
2024-04-30T10:40:39.553Z,2.50
2024-04-30T10:43:07.013Z,2.77
2024-04-30T10:45:34.766Z,2.70
2024-04-30T10:48:02.106Z,2.53
2024-04-30T10:50:30.242Z,2.80
2024-04-30T10:53:00.880Z,2.50
2024-04-30T10:55:28.691Z,2.40
2024-04-30T10:57:57.069Z,2.73
2024-04-30T11:00:27.931Z,2.43
2024-04-30T11:02:59.689Z,2.60
2024-04-30T11:05:28.692Z,2.43
2024-04-30T11:07:56.347Z,2.60
2024-04-30T11:10:30.857Z,2.73
2024-04-30T11:12:58.978Z,3.17
2024-04-30T11:15:26.541Z,2.50
2024-04-30T11:17:54.350Z,3.03
2024-04-30T11:20:21.788Z,3.33
2024-04-30T11:22:49.249Z,3.10
2024-04-30T11:25:16.761Z,2.27
2024-04-30T11:27:44.113Z,2.57
2024-04-30T11:30:11.512Z,2.50
2024-04-30T11:32:38.868Z,2.80
2024-04-30T11:35:06.297Z,2.57
2024-04-30T11:37:34.834Z,2.13
2024-04-30T11:40:02.357Z,2.50
2024-04-30T11:42:34.692Z,2.90
2024-04-30T11:45:09.044Z,2.20
2024-04-30T11:47:36.632Z,2.50
2024-04-30T11:50:04.065Z,2.60
2024-04-30T11:52:31.630Z,2.50
2024-04-30T11:54:58.995Z,2.30
2024-04-30T11:57:26.467Z,2.20
2024-04-30T11:59:54.889Z,3.03
2024-04-30T12:02:22.334Z,1.97
2024-04-30T12:04:49.951Z,2.90
2024-04-30T12:07:17.554Z,3.23
2024-04-30T12:09:45.007Z,2.53
2024-04-30T12:12:12.337Z,2.77
2024-04-30T12:14:41.095Z,2.37
2024-04-30T12:17:08.587Z,2.57
2024-04-30T12:19:37.364Z,2.10
2024-04-30T12:22:04.760Z,2.10
2024-04-30T12:24:32.182Z,2.10
2024-04-30T12:26:59.630Z,2.23
2024-04-30T12:29:27.046Z,2.17
2024-04-30T12:31:54.359Z,2.23
2024-04-30T12:34:21.851Z,2.00
2024-04-30T12:36:49.293Z,2.40
2024-04-30T12:39:16.717Z,2.57
2024-04-30T12:41:44.020Z,2.03
2024-04-30T12:44:11.500Z,1.70
2024-04-30T12:46:39.066Z,1.80
2024-04-30T12:49:06.790Z,2.53
2024-04-30T12:51:34.166Z,2.30
2024-04-30T12:54:01.483Z,2.30
2024-04-30T12:56:29.230Z,3.27
2024-04-30T12:58:56.477Z,2.57
2024-04-30T13:01:26.107Z,2.83
2024-04-30T13:03:54.153Z,2.67
2024-04-30T13:06:21.459Z,2.30
2024-04-30T13:08:48.796Z,2.10
2024-04-30T13:11:16.704Z,2.67
2024-04-30T13:13:44.270Z,2.60
2024-04-30T13:16:11.563Z,2.77
2024-04-30T13:18:38.956Z,2.70
2024-04-30T13:21:08.082Z,2.80
2024-04-30T13:23:36.095Z,3.07
2024-04-30T13:26:03.660Z,2.93
2024-04-30T13:28:31.208Z,2.70
2024-04-30T13:30:59.931Z,2.50
2024-04-30T13:33:29.675Z,2.60
2024-04-30T13:35:57.249Z,2.70
2024-04-30T13:38:24.756Z,2.90
2024-04-30T13:40:52.158Z,2.80
2024-04-30T13:43:19.590Z,2.83
2024-04-30T13:45:47.432Z,2.57
2024-04-30T13:48:14.804Z,3.00
2024-04-30T13:50:42.187Z,2.80
2024-04-30T13:53:09.676Z,3.10
2024-04-30T13:55:37.143Z,3.40
2024-04-30T13:58:05.641Z,3.20
2024-04-30T14:00:33.185Z,2.90
2024-04-30T14:03:00.565Z,3.03
2024-04-30T14:05:28.039Z,3.23
2024-04-30T14:07:55.389Z,3.13
2024-04-30T14:10:22.734Z,3.57
2024-04-30T14:12:50.258Z,3.57
2024-04-30T14:15:17.666Z,3.93
2024-04-30T14:17:45.039Z,2.73
2024-04-30T14:20:12.578Z,3.70
2024-04-30T14:22:41.433Z,3.10
2024-04-30T14:25:09.746Z,3.27
2024-04-30T14:27:37.530Z,3.23
2024-04-30T14:30:06.120Z,4.70
2024-04-30T14:32:34.811Z,4.77
2024-04-30T14:35:02.473Z,3.60
2024-04-30T14:37:30.045Z,3.30
2024-04-30T14:39:57.377Z,3.47
2024-04-30T14:42:24.854Z,3.20
2024-04-30T14:44:54.932Z,3.30
2024-04-30T14:47:27.351Z,3.67
2024-04-30T14:49:55.122Z,3.73
2024-04-30T14:52:22.568Z,3.73
2024-04-30T14:54:50.287Z,3.57
2024-04-30T14:57:17.758Z,3.43
2024-04-30T14:59:44.972Z,3.30
2024-04-30T15:02:13.285Z,2.73
2024-04-30T15:04:40.685Z,3.10
2024-04-30T15:07:08.095Z,3.20
2024-04-30T15:09:35.955Z,3.17
2024-04-30T15:12:03.424Z,3.10
2024-04-30T15:14:30.864Z,3.53
2024-04-30T15:16:59.082Z,2.90
2024-04-30T15:19:26.480Z,3.50
2024-04-30T15:21:54.016Z,3.10
2024-04-30T15:24:21.325Z,3.03
2024-04-30T15:26:48.792Z,3.37
2024-04-30T15:29:16.191Z,3.07
2024-04-30T15:31:43.738Z,3.00
2024-04-30T15:34:11.547Z,3.03
2024-04-30T15:36:43.742Z,3.03
2024-04-30T15:39:11.119Z,3.03
2024-04-30T15:41:38.400Z,2.50
2024-04-30T15:44:05.951Z,2.90
2024-04-30T15:46:38.590Z,3.00
2024-04-30T15:49:06.106Z,3.00
2024-04-30T15:51:33.429Z,3.10
2024-04-30T15:54:00.694Z,3.03
2024-04-30T15:56:28.997Z,3.30
2024-04-30T15:58:58.763Z,2.67
2024-04-30T16:01:26.094Z,2.83
2024-04-30T16:03:53.676Z,2.53
2024-04-30T16:06:20.913Z,2.97
2024-04-30T16:08:48.234Z,2.40
2024-04-30T16:11:15.920Z,4.07
2024-04-30T16:13:43.489Z,2.80
2024-04-30T16:16:16.619Z,2.93
2024-04-30T16:18:47.598Z,3.13
2024-04-30T16:21:15.589Z,3.00
2024-04-30T16:23:44.145Z,2.77
2024-04-30T16:26:12.041Z,3.30
2024-04-30T16:28:42.980Z,2.80
2024-04-30T16:31:11.498Z,2.97
2024-04-30T16:33:39.062Z,3.10
2024-04-30T16:36:07.326Z,2.97
2024-04-30T16:38:34.732Z,3.20
2024-04-30T16:41:03.489Z,3.13
2024-04-30T16:43:30.961Z,2.83
2024-04-30T16:45:58.200Z,3.20
2024-04-30T16:48:26.488Z,3.17
2024-04-30T16:50:54.462Z,2.97
2024-04-30T16:53:21.802Z,3.00
2024-04-30T16:55:49.214Z,2.90
2024-04-30T16:58:16.594Z,2.67
2024-04-30T17:00:43.952Z,2.83
2024-04-30T17:03:11.912Z,2.80
2024-04-30T17:05:39.348Z,3.33
2024-04-30T17:08:07.171Z,2.90
2024-04-30T17:10:34.654Z,3.23
2024-04-30T17:13:02.022Z,3.47
2024-04-30T17:15:29.598Z,3.60
2024-04-30T17:17:57.525Z,3.10
2024-04-30T17:20:25.183Z,3.10
2024-04-30T17:22:52.633Z,3.20
2024-04-30T17:25:19.887Z,3.73
2024-04-30T17:27:47.356Z,3.87
2024-04-30T17:30:18.096Z,3.33
2024-04-30T17:32:45.493Z,3.43
2024-04-30T17:35:12.769Z,3.80
2024-04-30T17:37:40.183Z,3.63
2024-04-30T17:40:08.047Z,3.23
2024-04-30T17:42:35.519Z,4.10
2024-04-30T17:45:03.339Z,3.50
2024-04-30T17:47:30.874Z,3.50
2024-04-30T17:49:58.228Z,3.73
2024-04-30T17:52:25.621Z,4.40
2024-04-30T17:54:53.009Z,4.50
2024-04-30T17:57:20.712Z,2.83
2024-04-30T17:59:48.151Z,3.23
2024-04-30T18:02:15.433Z,3.00
2024-04-30T18:04:42.911Z,4.00
2024-04-30T18:07:10.300Z,3.47
2024-04-30T18:09:38.945Z,3.90
2024-04-30T18:12:06.662Z,4.27
2024-04-30T18:14:33.968Z,4.13
2024-04-30T18:17:03.988Z,4.30
2024-04-30T18:19:32.025Z,5.07
2024-04-30T18:21:59.349Z,11.30
2024-04-30T18:24:26.958Z,9.40
2024-04-30T18:26:54.314Z,3.90
2024-04-30T18:29:21.597Z,16.47
2024-04-30T18:31:52.868Z,44.47
2024-04-30T18:34:20.473Z,14.53
2024-04-30T18:36:47.929Z,7.17
2024-04-30T18:39:16.528Z,3.20
2024-04-30T18:41:44.302Z,3.87
2024-04-30T18:44:11.968Z,3.83
2024-04-30T18:46:40.141Z,3.83
2024-04-30T18:49:07.742Z,3.57
2024-04-30T18:51:41.059Z,4.20
2024-04-30T18:54:09.274Z,6.23
2024-04-30T18:56:40.284Z,3.83
2024-04-30T18:59:07.571Z,3.50
2024-04-30T19:01:35.036Z,6.87
2024-04-30T19:04:05.571Z,4.13
2024-04-30T19:06:33.128Z,3.23
2024-04-30T19:09:00.571Z,3.20
2024-04-30T19:11:27.963Z,4.07
2024-04-30T19:13:55.267Z,3.00
2024-04-30T19:16:22.615Z,3.00
2024-04-30T19:18:50.212Z,3.27
2024-04-30T19:21:18.937Z,3.43
2024-04-30T19:23:46.486Z,4.50
2024-04-30T19:26:15.250Z,3.63
2024-04-30T19:28:42.887Z,12.57
2024-04-30T19:31:21.334Z,10.03
2024-04-30T19:33:49.372Z,5.90
2024-04-30T19:36:17.968Z,5.57
2024-04-30T19:38:45.621Z,4.57
2024-04-30T19:41:13.577Z,5.20
2024-04-30T19:43:41.116Z,4.27
2024-04-30T19:46:16.609Z,3.90
2024-04-30T19:48:44.984Z,4.27
2024-04-30T19:51:12.513Z,4.00
2024-04-30T19:53:40.028Z,2.80
2024-04-30T19:56:07.669Z,3.50
2024-04-30T19:58:34.939Z,3.60
2024-04-30T20:01:02.523Z,5.10
2024-04-30T20:03:30.037Z,4.87
2024-04-30T20:05:57.777Z,5.10
2024-04-30T20:08:25.117Z,4.80
2024-04-30T20:10:52.531Z,4.67
2024-04-30T20:13:20.776Z,5.17
2024-04-30T20:15:48.136Z,5.13
2024-04-30T20:18:15.606Z,4.37
2024-04-30T20:20:43.093Z,5.30
2024-04-30T20:23:10.330Z,5.43
2024-04-30T20:25:37.772Z,4.67
2024-04-30T20:28:05.215Z,4.63
2024-04-30T20:30:32.990Z,4.93
2024-04-30T20:33:00.360Z,5.40
2024-04-30T20:35:27.868Z,6.40
2024-04-30T20:37:55.194Z,6.53
2024-04-30T20:40:22.602Z,6.53
2024-04-30T20:42:50.854Z,6.00
2024-04-30T20:45:18.328Z,6.80
2024-04-30T20:47:45.623Z,6.80
2024-04-30T20:50:13.056Z,7.17
2024-04-30T20:52:42.186Z,6.77
2024-04-30T20:55:09.848Z,6.80
2024-04-30T20:57:37.227Z,6.57
2024-04-30T21:00:05.166Z,6.60
2024-04-30T21:02:32.587Z,6.73
2024-04-30T21:05:00.014Z,6.67
2024-04-30T21:07:27.285Z,6.30
2024-04-30T21:09:54.898Z,6.77
2024-04-30T21:12:22.297Z,7.17
2024-04-30T21:14:49.717Z,6.90
2024-04-30T21:17:17.081Z,6.47
2024-04-30T21:19:44.543Z,6.30
2024-04-30T21:22:11.819Z,6.87
2024-04-30T21:24:39.340Z,7.00
2024-04-30T21:27:06.662Z,6.93
2024-04-30T21:29:33.987Z,7.07
2024-04-30T21:32:01.532Z,6.97
2024-04-30T21:34:30.544Z,5.47
2024-04-30T21:36:57.978Z,6.03
2024-04-30T21:39:25.387Z,5.90
2024-04-30T21:41:52.765Z,5.47
2024-04-30T21:44:20.080Z,5.87
2024-04-30T21:46:47.436Z,5.03
2024-04-30T21:49:15.095Z,6.10
2024-04-30T21:51:46.108Z,5.60
2024-04-30T21:54:14.407Z,5.10
2024-04-30T21:56:41.813Z,5.07
2024-04-30T21:59:09.165Z,5.63
2024-04-30T22:01:36.687Z,5.70
2024-04-30T22:04:04.392Z,5.67
2024-04-30T22:06:32.130Z,6.80
2024-04-30T22:08:59.872Z,7.80
2024-04-30T22:11:27.408Z,5.60
2024-04-30T22:13:54.803Z,4.97
2024-04-30T22:16:22.086Z,5.50
2024-04-30T22:18:49.485Z,6.17
2024-04-30T22:21:19.699Z,6.20
2024-04-30T22:23:48.685Z,7.53
2024-04-30T22:26:15.992Z,8.03
2024-04-30T22:28:43.722Z,6.40
2024-04-30T22:31:11.980Z,6.37
2024-04-30T22:33:40.172Z,5.47
2024-04-30T22:36:07.670Z,5.60
2024-04-30T22:38:36.010Z,5.47
2024-04-30T22:41:04.397Z,5.30
2024-04-30T22:43:31.942Z,7.37
2024-04-30T22:46:01.550Z,5.40
2024-04-30T22:48:29.765Z,4.90
2024-04-30T22:50:59.073Z,5.17
2024-04-30T22:53:30.556Z,5.20
2024-04-30T22:56:00.449Z,5.77
2024-04-30T22:58:28.782Z,5.37
2024-04-30T23:00:57.655Z,5.70
2024-04-30T23:03:25.871Z,6.23
2024-04-30T23:05:53.771Z,5.60
2024-04-30T23:08:21.110Z,5.77
2024-04-30T23:10:48.499Z,5.30
2024-04-30T23:13:15.866Z,5.70
2024-04-30T23:15:43.257Z,5.83
2024-04-30T23:18:10.803Z,6.47
2024-04-30T23:20:38.240Z,5.40
2024-04-30T23:23:05.607Z,5.57
2024-04-30T23:25:33.098Z,6.30
2024-04-30T23:28:00.485Z,5.53
2024-04-30T23:30:28.160Z,6.00
2024-04-30T23:32:55.576Z,6.83
2024-04-30T23:35:22.922Z,9.20
2024-04-30T23:37:50.263Z,7.93
2024-04-30T23:40:17.645Z,7.87
2024-04-30T23:42:45.059Z,6.37
2024-04-30T23:45:12.539Z,5.47
2024-04-30T23:47:39.930Z,5.90
2024-04-30T23:50:07.443Z,5.90
2024-04-30T23:52:36.003Z,5.30
2024-04-30T23:55:03.592Z,5.43
2024-04-30T23:57:31.003Z,6.03
2024-04-30T23:59:58.417Z,6.10
